createdAt,value
2018-10-11T00:00:38.233Z,17.57
2018-10-11T00:01:38.243Z,17.60
2018-10-11T00:02:38.209Z,17.64
2018-10-11T00:03:38.205Z,17.57
2018-10-11T00:04:38.224Z,17.60
2018-10-11T00:05:38.181Z,17.65
2018-10-11T00:06:38.180Z,17.68
2018-10-11T00:07:38.154Z,17.59
2018-10-11T00:08:38.156Z,17.68
2018-10-11T00:09:38.154Z,17.70
2018-10-11T00:10:38.129Z,17.68
2018-10-11T00:11:38.128Z,17.54
2018-10-11T00:12:38.102Z,17.67
2018-10-11T00:13:38.091Z,17.65
2018-10-11T00:14:38.095Z,17.54
2018-10-11T00:15:38.073Z,17.60
2018-10-11T00:16:38.092Z,17.60
2018-10-11T00:17:38.052Z,17.59
2018-10-11T00:18:38.044Z,17.51
2018-10-11T00:19:38.024Z,17.60
2018-10-11T00:20:38.020Z,17.49
2018-10-11T00:21:38.005Z,17.42
2018-10-11T00:22:38.009Z,17.44
2018-10-11T00:23:38.010Z,17.46
2018-10-11T00:24:37.979Z,17.42
2018-10-11T00:25:37.966Z,17.41
2018-10-11T00:26:37.974Z,17.33
2018-10-11T00:27:37.944Z,17.36
2018-10-11T00:28:37.935Z,17.29
2018-10-11T00:29:37.938Z,17.39
2018-10-11T00:30:37.959Z,17.36
2018-10-11T00:31:37.894Z,17.36
2018-10-11T00:32:37.886Z,17.44
2018-10-11T00:33:37.875Z,17.45
2018-10-11T00:34:37.878Z,17.42
2018-10-11T00:35:37.857Z,17.44
2018-10-11T00:36:37.845Z,17.39
2018-10-11T00:37:37.836Z,17.42
2018-10-11T00:38:37.825Z,17.38
2018-10-11T00:39:37.830Z,17.34
2018-10-11T00:40:37.804Z,17.30
2018-10-11T00:41:37.798Z,17.31
2018-10-11T00:42:37.783Z,17.31
2018-10-11T00:43:37.762Z,17.23
2018-10-11T00:44:37.753Z,17.20
2018-10-11T00:45:37.761Z,17.26
2018-10-11T00:46:37.732Z,17.15
2018-10-11T00:47:37.728Z,17.06
2018-10-11T00:48:37.712Z,17.05
2018-10-11T00:49:37.843Z,17.05
2018-10-11T00:50:37.694Z,16.99
2018-10-11T00:51:37.676Z,16.94
2018-10-11T00:52:37.667Z,16.96
2018-10-11T00:53:37.663Z,16.99
2018-10-11T00:54:37.665Z,16.91
2018-10-11T00:55:37.655Z,16.91
2018-10-11T00:56:37.664Z,16.90
2018-10-11T00:57:37.618Z,16.90
2018-10-11T00:58:37.600Z,16.87
2018-10-11T00:59:37.596Z,16.87
2018-10-11T01:00:37.583Z,16.86
2018-10-11T01:01:37.573Z,16.84
2018-10-11T01:02:37.588Z,16.81
2018-10-11T01:03:37.548Z,16.79
2018-10-11T01:04:37.558Z,16.81
2018-10-11T01:05:37.527Z,16.74
2018-10-11T01:06:37.516Z,16.69
2018-10-11T01:07:37.531Z,16.58
2018-10-11T01:08:37.495Z,16.60
2018-10-11T01:09:37.503Z,16.64
2018-10-11T01:10:37.479Z,16.53
2018-10-11T01:11:37.458Z,16.43
2018-10-11T01:12:37.454Z,16.51
2018-10-11T01:13:37.440Z,16.49
2018-10-11T01:14:37.446Z,16.46
2018-10-11T01:15:37.432Z,16.47
2018-10-11T01:16:37.411Z,16.41
2018-10-11T01:17:37.403Z,16.38
2018-10-11T01:18:37.435Z,16.41
2018-10-11T01:19:37.450Z,16.42
2018-10-11T01:20:37.372Z,16.43
2018-10-11T01:21:37.351Z,16.31
2018-10-11T01:22:37.349Z,16.28
2018-10-11T01:23:37.359Z,16.24
2018-10-11T01:24:37.345Z,16.24
2018-10-11T01:25:37.314Z,16.28
2018-10-11T01:26:37.301Z,16.24
2018-10-11T01:27:37.304Z,16.38
2018-10-11T01:28:37.274Z,16.39
2018-10-11T01:29:37.407Z,16.42
2018-10-11T01:30:37.258Z,16.42
2018-10-11T01:31:37.245Z,16.42
2018-10-11T01:32:37.232Z,16.43
2018-10-11T01:33:37.231Z,16.47
2018-10-11T01:34:37.231Z,16.53
2018-10-11T01:35:37.213Z,16.57
2018-10-11T01:36:37.197Z,16.56
2018-10-11T01:37:37.186Z,16.56
2018-10-11T01:38:37.263Z,16.57
2018-10-11T01:39:37.176Z,16.64
2018-10-11T01:40:37.156Z,16.60
2018-10-11T01:41:37.134Z,16.69
2018-10-11T01:42:37.125Z,16.65
2018-10-11T01:43:37.119Z,16.68
2018-10-11T01:44:37.126Z,16.65
2018-10-11T01:45:37.091Z,16.72
2018-10-11T01:46:37.084Z,16.71
2018-10-11T01:47:37.078Z,16.66
2018-10-11T01:48:37.065Z,16.64
2018-10-11T01:49:37.071Z,16.60
2018-10-11T01:50:37.070Z,16.58
2018-10-11T01:51:37.033Z,16.57
2018-10-11T01:52:37.016Z,16.51
2018-10-11T01:53:37.004Z,16.46
2018-10-11T01:54:36.998Z,16.53
2018-10-11T01:55:37.006Z,16.43
2018-10-11T01:56:36.995Z,16.43
2018-10-11T01:57:36.968Z,16.36
2018-10-11T01:58:36.955Z,16.42
2018-10-11T01:59:36.964Z,16.47
2018-10-11T02:00:36.928Z,16.50
2018-10-11T02:01:36.925Z,16.41
2018-10-11T02:02:36.916Z,16.41
2018-10-11T02:03:36.898Z,16.43
2018-10-11T02:04:36.886Z,16.46
2018-10-11T02:05:36.897Z,16.43
2018-10-11T02:06:36.885Z,16.53
2018-10-11T02:07:36.856Z,16.57
2018-10-11T02:08:36.853Z,16.56
2018-10-11T02:09:36.984Z,16.53
2018-10-11T02:10:36.846Z,16.61
2018-10-11T02:11:36.811Z,16.54
2018-10-11T02:12:36.802Z,16.56
2018-10-11T02:13:36.792Z,16.53
2018-10-11T02:14:36.784Z,16.56
2018-10-11T02:15:36.790Z,16.54
2018-10-11T02:16:36.763Z,16.49
2018-10-11T02:17:36.745Z,16.50
2018-10-11T02:18:36.736Z,16.49
2018-10-11T02:19:36.728Z,16.46
2018-10-11T02:20:36.737Z,16.53
2018-10-11T02:21:36.759Z,16.54
2018-10-11T02:22:36.697Z,16.47
2018-10-11T02:23:36.682Z,16.38
2018-10-11T02:24:36.670Z,16.41
2018-10-11T02:25:36.677Z,16.32
2018-10-11T02:26:36.650Z,16.29
2018-10-11T02:27:36.645Z,16.23
2018-10-11T02:28:36.631Z,16.23
2018-10-11T02:29:36.623Z,16.21
2018-10-11T02:30:36.632Z,16.04
2018-10-11T02:31:36.599Z,16.00
2018-10-11T02:32:36.585Z,15.86
2018-10-11T02:33:36.598Z,15.90
2018-10-11T02:34:36.584Z,15.94
2018-10-11T02:35:36.576Z,15.76
2018-10-11T02:36:36.578Z,15.73
2018-10-11T02:37:36.532Z,15.70
2018-10-11T02:38:36.519Z,15.73
2018-10-11T02:39:36.516Z,15.70
2018-10-11T02:40:36.502Z,15.67
2018-10-11T02:41:36.561Z,15.55
2018-10-11T02:42:36.485Z,15.57
2018-10-11T02:43:36.468Z,15.46
2018-10-11T02:44:36.456Z,15.55
2018-10-11T02:45:36.445Z,15.73
2018-10-11T02:46:36.435Z,15.67
2018-10-11T02:47:36.446Z,15.76
2018-10-11T02:48:36.416Z,15.73
2018-10-11T02:49:36.405Z,15.72
2018-10-11T02:50:36.390Z,15.79
2018-10-11T02:51:36.411Z,15.88
2018-10-11T02:52:36.374Z,15.83
2018-10-11T02:53:36.362Z,15.84
2018-10-11T02:54:36.353Z,15.84
2018-10-11T02:55:36.336Z,15.79
2018-10-11T02:56:36.333Z,15.91
2018-10-11T02:57:36.343Z,15.95
2018-10-11T02:58:36.304Z,15.94
2018-10-11T02:59:36.310Z,16.02
2018-10-11T03:00:36.298Z,16.00
2018-10-11T03:01:36.278Z,16.08
2018-10-11T03:02:36.272Z,16.24
2018-10-11T03:03:36.268Z,16.16
2018-10-11T03:04:36.242Z,16.28
2018-10-11T03:05:36.256Z,16.31
2018-10-11T03:06:36.225Z,16.33
2018-10-11T03:07:36.206Z,16.24
2018-10-11T03:08:36.199Z,16.17
2018-10-11T03:09:36.235Z,16.01
2018-10-11T03:10:36.176Z,15.94
2018-10-11T03:11:36.193Z,15.88
2018-10-11T03:12:36.163Z,15.68
2018-10-11T03:13:36.163Z,15.57
2018-10-11T03:14:36.139Z,15.44
2018-10-11T03:15:36.119Z,15.40
2018-10-11T03:16:36.112Z,15.25
2018-10-11T03:17:36.125Z,15.14
2018-10-11T03:18:36.092Z,15.03
2018-10-11T03:19:36.085Z,14.78
2018-10-11T03:20:36.070Z,14.65
2018-10-11T03:21:36.057Z,14.45
2018-10-11T03:22:36.067Z,14.44
2018-10-11T03:23:36.040Z,14.26
2018-10-11T03:24:36.027Z,14.25
2018-10-11T03:25:36.018Z,14.23
2018-10-11T03:26:36.007Z,14.22
2018-10-11T03:27:35.989Z,14.25
2018-10-11T03:28:36.023Z,14.41
2018-10-11T03:29:35.970Z,14.37
2018-10-11T03:30:35.958Z,14.43
2018-10-11T03:31:35.957Z,14.36
2018-10-11T03:32:35.941Z,14.17
2018-10-11T03:33:35.928Z,14.14
2018-10-11T03:34:35.944Z,14.05
2018-10-11T03:35:35.934Z,13.92
2018-10-11T03:36:35.896Z,13.83
2018-10-11T03:37:35.885Z,13.67
2018-10-11T03:38:35.879Z,13.54
2018-10-11T03:39:35.858Z,13.39
2018-10-11T03:40:35.873Z,13.38
2018-10-11T03:41:35.840Z,13.19
2018-10-11T03:42:35.826Z,13.19
2018-10-11T03:43:35.820Z,13.13
2018-10-11T03:44:35.808Z,13.04
2018-10-11T03:45:35.798Z,12.87
2018-10-11T03:46:35.894Z,12.79
2018-10-11T03:47:35.770Z,12.67
2018-10-11T03:48:35.762Z,12.61
2018-10-11T03:49:35.751Z,12.58
2018-10-11T03:50:35.738Z,12.50
2018-10-11T03:51:35.733Z,12.35
2018-10-11T03:52:35.752Z,12.37
2018-10-11T03:53:35.713Z,12.27
2018-10-11T03:54:35.699Z,12.21
2018-10-11T03:55:35.743Z,12.12
2018-10-11T03:56:35.680Z,12.07
2018-10-11T03:57:35.686Z,12.04
2018-10-11T03:58:35.695Z,12.04
2018-10-11T03:59:35.644Z,11.94
2018-10-11T04:00:35.635Z,11.87
2018-10-11T04:01:35.622Z,11.83
2018-10-11T04:02:35.626Z,11.73
2018-10-11T04:03:35.605Z,11.78
2018-10-11T04:04:35.593Z,11.70
2018-10-11T04:05:35.587Z,11.69
2018-10-11T04:06:35.591Z,11.68
2018-10-11T04:07:35.615Z,11.70
2018-10-11T04:08:35.547Z,11.68
2018-10-11T04:09:35.538Z,11.59
2018-10-11T04:10:35.536Z,11.54
2018-10-11T04:11:35.515Z,11.45
2018-10-11T04:12:35.521Z,11.45
2018-10-11T04:13:35.510Z,11.35
2018-10-11T04:14:35.482Z,11.30
2018-10-11T04:15:35.566Z,11.27
2018-10-11T04:16:35.464Z,11.23
2018-10-11T04:17:35.456Z,11.22
2018-10-11T04:18:35.460Z,11.07
2018-10-11T04:19:35.426Z,11.07
2018-10-11T04:20:35.418Z,10.99
2018-10-11T04:21:35.407Z,10.97
2018-10-11T04:22:35.392Z,10.93
2018-10-11T04:23:35.409Z,10.86
2018-10-11T04:24:35.374Z,10.76
2018-10-11T04:25:35.363Z,10.72
2018-10-11T04:26:35.348Z,10.74
2018-10-11T04:27:35.361Z,10.67
2018-10-11T04:28:35.331Z,10.67
2018-10-11T04:29:35.338Z,10.59
2018-10-11T04:30:35.312Z,10.61
2018-10-11T04:31:35.295Z,10.60
2018-10-11T04:32:35.319Z,10.48
2018-10-11T04:33:35.277Z,10.38
2018-10-11T04:34:35.261Z,10.37
2018-10-11T04:35:35.286Z,10.38
2018-10-11T04:36:35.245Z,10.51
2018-10-11T04:37:35.234Z,10.54
2018-10-11T04:38:35.226Z,10.51
2018-10-11T04:39:35.208Z,10.51
2018-10-11T04:40:35.226Z,10.51
2018-10-11T04:41:35.191Z,10.40
2018-10-11T04:42:35.232Z,10.42
2018-10-11T04:43:35.164Z,10.40
2018-10-11T04:44:35.157Z,10.41
2018-10-11T04:45:35.145Z,10.28
2018-10-11T04:46:35.150Z,10.30
2018-10-11T04:47:35.157Z,10.25
2018-10-11T04:48:35.115Z,10.31
2018-10-11T04:49:35.107Z,10.20
2018-10-11T04:50:35.106Z,10.31
2018-10-11T04:51:35.083Z,10.26
2018-10-11T04:52:35.070Z,10.28
2018-10-11T04:53:35.132Z,10.26
2018-10-11T04:54:35.062Z,10.35
2018-10-11T04:55:35.044Z,10.31
2018-10-11T04:56:35.029Z,10.25
2018-10-11T04:57:35.016Z,10.30
2018-10-11T04:58:35.021Z,10.30
2018-10-11T04:59:35.015Z,10.26
2018-10-11T05:00:34.986Z,10.33
2018-10-11T05:01:34.974Z,10.35
2018-10-11T05:02:34.965Z,10.25
2018-10-11T05:03:34.975Z,10.19
2018-10-11T05:04:34.943Z,10.10
2018-10-11T05:05:34.954Z,10.13
2018-10-11T05:06:34.916Z,10.10
2018-10-11T05:07:34.912Z,10.04
2018-10-11T05:08:34.899Z,10.10
2018-10-11T05:09:34.889Z,10.02
2018-10-11T05:10:34.944Z,10.10
2018-10-11T05:11:34.889Z,10.13
2018-10-11T05:12:34.859Z,9.99
2018-10-11T05:13:34.846Z,10.05
2018-10-11T05:14:34.837Z,9.94
2018-10-11T05:15:34.838Z,9.82
2018-10-11T05:16:34.809Z,9.76
2018-10-11T05:17:34.803Z,9.65
2018-10-11T05:18:34.806Z,9.72
2018-10-11T05:19:34.790Z,9.58
2018-10-11T05:20:34.769Z,9.64
2018-10-11T05:21:34.780Z,9.61
2018-10-11T05:22:34.771Z,9.50
2018-10-11T05:23:34.734Z,9.56
2018-10-11T05:24:34.726Z,9.47
2018-10-11T05:25:34.774Z,9.47
2018-10-11T05:26:34.718Z,9.47
2018-10-11T05:27:34.730Z,9.47
2018-10-11T05:28:34.687Z,9.48
2018-10-11T05:29:34.722Z,9.47
2018-10-11T05:30:34.661Z,9.50
2018-10-11T05:31:34.651Z,9.47
2018-10-11T05:32:34.671Z,9.48
2018-10-11T05:33:34.651Z,9.51
2018-10-11T05:34:34.622Z,9.44
2018-10-11T05:35:34.601Z,9.51
2018-10-11T05:36:34.599Z,9.46
2018-10-11T05:37:34.591Z,9.51
2018-10-11T05:38:34.587Z,9.46
2018-10-11T05:39:34.568Z,9.47
2018-10-11T05:40:34.554Z,9.58
2018-10-11T05:41:34.553Z,9.51
2018-10-11T05:42:34.537Z,9.72
2018-10-11T05:43:34.535Z,9.59
2018-10-11T05:44:34.638Z,9.69
2018-10-11T05:45:34.498Z,9.76
2018-10-11T05:46:34.489Z,9.92
2018-10-11T05:47:34.473Z,10.04
2018-10-11T05:48:34.484Z,10.13
2018-10-11T05:49:34.492Z,9.92
2018-10-11T05:50:34.439Z,10.05
2018-10-11T05:51:34.455Z,9.97
2018-10-11T05:52:34.454Z,9.98
2018-10-11T05:53:34.410Z,9.94
2018-10-11T05:54:34.404Z,9.98
2018-10-11T05:55:34.410Z,9.94
2018-10-11T05:56:34.411Z,9.94
2018-10-11T05:57:34.371Z,9.79
2018-10-11T05:58:34.355Z,9.68
2018-10-11T05:59:34.349Z,9.59
2018-10-11T06:00:34.335Z,9.55
2018-10-11T06:01:34.340Z,9.56
2018-10-11T06:02:34.309Z,9.50
2018-10-11T06:03:34.324Z,9.48
2018-10-11T06:04:34.291Z,9.37
2018-10-11T06:05:34.283Z,9.36
2018-10-11T06:06:34.273Z,9.32
2018-10-11T06:07:34.255Z,9.40
2018-10-11T06:08:34.266Z,9.34
2018-10-11T06:09:34.236Z,9.36
2018-10-11T06:10:34.223Z,9.39
2018-10-11T06:11:34.220Z,9.34
2018-10-11T06:12:34.230Z,9.40
2018-10-11T06:13:34.220Z,9.46
2018-10-11T06:14:34.197Z,9.48
2018-10-11T06:15:34.170Z,9.47
2018-10-11T06:16:34.160Z,9.46
2018-10-11T06:17:34.157Z,9.50
2018-10-11T06:18:34.497Z,9.54
2018-10-11T06:19:34.127Z,9.46
2018-10-11T06:20:34.117Z,9.44
2018-10-11T06:21:34.112Z,9.48
2018-10-11T06:22:34.094Z,9.48
2018-10-11T06:23:34.091Z,9.50
2018-10-11T06:24:34.128Z,9.51
2018-10-11T06:25:34.093Z,9.54
2018-10-11T06:26:34.080Z,9.58
2018-10-11T06:27:34.039Z,9.48
2018-10-11T06:28:34.030Z,9.47
2018-10-11T06:29:34.019Z,9.48
2018-10-11T06:30:34.025Z,9.51
2018-10-11T06:31:34.003Z,9.43
2018-10-11T06:32:33.996Z,9.47
2018-10-11T06:33:34.012Z,9.43
2018-10-11T06:34:34.004Z,9.48
2018-10-11T06:35:33.998Z,9.48
2018-10-11T06:36:34.030Z,9.59
2018-10-11T06:37:33.936Z,9.56
2018-10-11T06:38:33.935Z,9.59
2018-10-11T06:39:33.908Z,9.74
2018-10-11T06:40:33.900Z,9.86
2018-10-11T06:41:33.941Z,9.94
2018-10-11T06:42:33.922Z,10.12
2018-10-11T06:43:33.871Z,10.15
2018-10-11T06:44:33.864Z,10.33
2018-10-11T06:45:33.877Z,10.44
2018-10-11T06:46:33.860Z,10.72
2018-10-11T06:47:33.845Z,10.93
2018-10-11T06:48:33.828Z,11.14
2018-10-11T06:49:33.812Z,11.19
2018-10-11T06:50:33.794Z,11.40
2018-10-11T06:51:33.787Z,11.41
2018-10-11T06:52:33.768Z,11.41
2018-10-11T06:53:33.775Z,11.41
2018-10-11T06:54:33.756Z,11.50
2018-10-11T06:55:33.741Z,11.55
2018-10-11T06:56:33.732Z,11.60
2018-10-11T06:57:33.723Z,11.77
2018-10-11T06:58:35.586Z,12.03
2018-10-11T06:59:33.693Z,12.17
2018-10-11T07:00:33.681Z,12.27
2018-10-11T07:01:33.712Z,12.45
2018-10-11T07:02:33.666Z,12.43
2018-10-11T07:03:33.657Z,12.53
2018-10-11T07:04:33.671Z,12.65
2018-10-11T07:05:33.628Z,12.62
2018-10-11T07:06:33.622Z,12.70
2018-10-11T07:07:33.611Z,12.83
2018-10-11T07:08:33.604Z,13.16
2018-10-11T07:09:33.604Z,13.15
2018-10-11T07:10:33.609Z,13.31
2018-10-11T07:11:33.568Z,13.47
2018-10-11T07:12:33.552Z,13.67
2018-10-11T07:13:33.567Z,13.85
2018-10-11T07:14:33.543Z,14.07
2018-10-11T07:15:33.532Z,14.11
2018-10-11T07:16:33.579Z,14.17
2018-10-11T07:17:33.532Z,14.26
2018-10-11T07:18:33.495Z,14.23
2018-10-11T07:19:33.525Z,14.33
2018-10-11T07:20:33.503Z,14.44
2018-10-11T07:21:33.518Z,14.53
2018-10-11T07:22:33.448Z,14.66
2018-10-11T07:23:33.435Z,14.86
2018-10-11T07:24:33.422Z,15.03
2018-10-11T07:25:33.414Z,15.15
2018-10-11T07:26:33.406Z,15.19
2018-10-11T07:27:33.412Z,15.14
2018-10-11T07:28:33.387Z,15.35
2018-10-11T07:29:33.394Z,15.46
2018-10-11T07:30:33.364Z,15.57
2018-10-11T07:31:33.348Z,15.73
2018-10-11T07:32:33.344Z,15.64
2018-10-11T07:33:33.342Z,15.73
2018-10-11T07:34:33.358Z,15.67
2018-10-11T07:35:33.701Z,15.68
2018-10-11T07:36:33.302Z,15.79
2018-10-11T07:37:33.283Z,15.86
2018-10-11T07:38:33.272Z,15.92
2018-10-11T07:39:33.264Z,15.92
2018-10-11T07:40:33.380Z,16.00
2018-10-11T07:41:33.245Z,16.21
2018-10-11T07:42:33.231Z,16.24
2018-10-11T07:43:33.222Z,16.42
2018-10-11T07:44:33.229Z,16.69
2018-10-11T07:45:33.205Z,16.90
2018-10-11T07:46:33.185Z,17.01
2018-10-11T07:47:33.183Z,17.02
2018-10-11T07:48:33.169Z,17.26
2018-10-11T07:49:33.160Z,17.42
2018-10-11T07:50:33.169Z,17.36
2018-10-11T07:51:33.139Z,17.38
2018-10-11T07:52:33.121Z,17.56
2018-10-11T07:53:33.122Z,17.70
2018-10-11T07:54:33.107Z,17.85
2018-10-11T07:55:33.089Z,17.95
2018-10-11T07:56:33.136Z,18.04
2018-10-11T07:57:33.074Z,18.13
2018-10-11T07:58:33.059Z,18.18
2018-10-11T07:59:33.054Z,18.25
2018-10-11T08:00:33.074Z,18.29
2018-10-11T08:01:33.034Z,18.44
2018-10-11T08:02:33.032Z,18.49
2018-10-11T08:03:33.156Z,18.55
2018-10-11T08:04:33.000Z,18.55
2018-10-11T08:05:32.989Z,18.56
2018-10-11T08:06:32.985Z,18.55
2018-10-11T08:07:33.026Z,18.53
2018-10-11T08:08:33.053Z,18.60
2018-10-11T08:09:32.968Z,18.58
2018-10-11T08:10:32.994Z,18.68
2018-10-11T08:11:33.101Z,18.77
2018-10-11T08:12:32.934Z,18.71
2018-10-11T08:13:32.978Z,18.90
2018-10-11T08:14:32.927Z,18.81
2018-10-11T08:15:32.872Z,18.93
2018-10-11T08:16:32.942Z,18.98
2018-10-11T08:17:33.406Z,18.99
2018-10-11T08:18:32.868Z,19.08
2018-10-11T08:19:33.065Z,19.18
2018-10-11T08:20:32.916Z,19.08
2018-10-11T08:21:32.860Z,19.12
2018-10-11T08:22:32.801Z,19.19
2018-10-11T08:23:32.788Z,19.18
2018-10-11T08:24:32.798Z,19.22
2018-10-11T08:25:33.012Z,19.21
2018-10-11T08:26:32.776Z,19.33
2018-10-11T08:27:32.752Z,19.34
2018-10-11T08:28:32.759Z,19.36
2018-10-11T08:29:32.720Z,19.36
2018-10-11T08:30:32.736Z,19.39
2018-10-11T08:31:32.763Z,19.47
2018-10-11T08:32:32.859Z,19.49
2018-10-11T08:33:32.691Z,19.48
2018-10-11T08:34:32.672Z,19.31
2018-10-11T08:35:32.658Z,19.36
2018-10-11T08:36:32.665Z,19.39
2018-10-11T08:37:32.707Z,19.40
2018-10-11T08:38:32.694Z,19.54
2018-10-11T08:39:32.653Z,19.70
2018-10-11T08:40:32.609Z,19.73
2018-10-11T08:41:32.591Z,19.82
2018-10-11T08:42:32.608Z,19.82
2018-10-11T08:43:32.642Z,19.79
2018-10-11T08:44:32.567Z,19.92
2018-10-11T08:45:32.560Z,20.00
2018-10-11T08:46:32.586Z,20.07
2018-10-11T08:47:32.533Z,20.16
2018-10-11T08:48:32.544Z,20.19
2018-10-11T08:49:32.584Z,20.28
2018-10-11T08:50:32.554Z,20.25
2018-10-11T08:51:32.491Z,20.18
2018-10-11T08:52:32.503Z,20.18
2018-10-11T08:53:32.591Z,20.25
2018-10-11T08:54:32.519Z,20.37
2018-10-11T08:55:32.544Z,20.40
2018-10-11T08:56:32.453Z,20.44
2018-10-11T08:57:32.423Z,20.50
2018-10-11T08:58:32.414Z,20.58
2018-10-11T08:59:32.413Z,20.52
2018-10-11T09:00:32.414Z,20.52
2018-10-11T09:01:32.373Z,20.51
2018-10-11T09:02:32.412Z,20.56
2018-10-11T09:03:32.487Z,20.62
2018-10-11T09:04:32.350Z,20.72
2018-10-11T09:05:32.357Z,20.81
2018-10-11T09:06:32.323Z,20.78
2018-10-11T09:07:32.338Z,20.74
2018-10-11T09:08:32.297Z,20.90
2018-10-11T09:09:32.338Z,20.95
2018-10-11T09:10:38.291Z,21.00
2018-10-11T09:11:32.352Z,21.12
2018-10-11T09:12:32.260Z,21.18
2018-10-11T09:13:32.265Z,21.24
2018-10-11T09:14:32.788Z,21.27
2018-10-11T09:15:32.227Z,21.30
2018-10-11T09:16:32.239Z,21.29
2018-10-11T09:17:32.499Z,21.40
2018-10-11T09:18:32.195Z,21.46
2018-10-11T09:19:32.182Z,21.52
2018-10-11T09:20:32.211Z,21.61
2018-10-11T09:21:32.192Z,21.62
2018-10-11T09:22:32.251Z,21.62
2018-10-11T09:23:32.198Z,21.75
2018-10-11T09:24:32.171Z,21.75
2018-10-11T09:25:32.281Z,21.62
2018-10-11T09:26:32.155Z,21.77
2018-10-11T09:27:32.121Z,21.79
2018-10-11T09:28:32.129Z,21.82
2018-10-11T09:29:32.101Z,21.83
2018-10-11T09:30:32.126Z,21.95
2018-10-11T09:31:32.077Z,22.08
2018-10-11T09:32:32.090Z,22.11
2018-10-11T09:33:32.075Z,22.08
2018-10-11T09:34:32.038Z,21.99
2018-10-11T09:35:32.012Z,22.00
2018-10-11T09:36:32.080Z,21.92
2018-10-11T09:37:31.992Z,21.88
2018-10-11T09:38:32.059Z,21.96
2018-10-11T09:39:32.067Z,22.00
2018-10-11T09:40:31.984Z,21.98
2018-10-11T09:41:31.952Z,22.00
2018-10-11T09:42:31.962Z,22.00
2018-10-11T09:43:31.924Z,21.99
2018-10-11T09:44:32.017Z,22.15
2018-10-11T09:45:31.935Z,22.28
2018-10-11T09:46:31.908Z,22.35
2018-10-11T09:47:31.888Z,22.54
2018-10-11T09:48:31.974Z,22.68
2018-10-11T09:49:31.891Z,22.50
2018-10-11T09:50:31.880Z,22.28
2018-10-11T09:51:31.868Z,22.32
2018-10-11T09:52:31.829Z,22.35
2018-10-11T09:53:31.850Z,22.35
2018-10-11T09:54:31.985Z,22.35
2018-10-11T09:55:31.828Z,22.39
2018-10-11T09:56:31.828Z,22.39
2018-10-11T09:57:31.836Z,22.36
2018-10-11T09:58:31.793Z,22.35
2018-10-11T09:59:31.823Z,22.29
2018-10-11T10:00:31.748Z,22.26
2018-10-11T10:01:31.755Z,22.28
2018-10-11T10:02:31.766Z,22.43
2018-10-11T10:03:31.733Z,22.48
2018-10-11T10:04:31.729Z,22.59
2018-10-11T10:05:31.734Z,22.51
2018-10-11T10:06:31.707Z,22.54
2018-10-11T10:07:31.698Z,22.54
2018-10-11T10:08:31.720Z,22.65
2018-10-11T10:09:31.674Z,22.73
2018-10-11T10:10:31.670Z,22.80
2018-10-11T10:11:31.651Z,22.88
2018-10-11T10:12:31.644Z,22.81
2018-10-11T10:13:31.633Z,22.75
2018-10-11T10:14:31.665Z,22.69
2018-10-11T10:15:31.675Z,22.55
2018-10-11T10:16:31.592Z,22.51
2018-10-11T10:17:31.643Z,22.55
2018-10-11T10:18:31.773Z,22.57
2018-10-11T10:19:31.558Z,22.60
2018-10-11T10:20:31.583Z,22.68
2018-10-11T10:21:31.564Z,22.73
2018-10-11T10:22:31.541Z,22.76
2018-10-11T10:23:31.534Z,22.76
2018-10-11T10:24:31.518Z,22.96
2018-10-11T10:25:31.517Z,23.09
2018-10-11T10:26:31.540Z,23.15
2018-10-11T10:27:31.591Z,23.25
2018-10-11T10:28:31.466Z,23.23
2018-10-11T10:29:31.465Z,23.31
2018-10-11T10:30:31.473Z,23.37
2018-10-11T10:31:31.459Z,23.55
2018-10-11T10:32:31.395Z,23.51
2018-10-11T10:33:31.391Z,23.55
2018-10-11T10:34:31.383Z,23.65
2018-10-11T10:35:31.380Z,23.56
2018-10-11T10:36:31.378Z,23.51
2018-10-11T10:37:31.341Z,23.39
2018-10-11T10:38:31.334Z,23.41
2018-10-11T10:39:31.345Z,23.34
2018-10-11T10:40:31.316Z,23.36
2018-10-11T10:41:31.307Z,23.63
2018-10-11T10:42:31.293Z,23.86
2018-10-11T10:43:31.298Z,23.91
2018-10-11T10:44:31.274Z,24.01
2018-10-11T10:45:31.286Z,24.05
2018-10-11T10:46:31.271Z,23.99
2018-10-11T10:47:31.243Z,24.13
2018-10-11T10:48:31.278Z,24.26
2018-10-11T10:49:31.212Z,24.23
2018-10-11T10:50:31.207Z,24.28
2018-10-11T10:51:31.198Z,24.32
2018-10-11T10:52:31.205Z,24.35
2018-10-11T10:53:31.179Z,24.42
2018-10-11T10:54:31.165Z,24.40
2018-10-11T10:55:31.150Z,24.42
2018-10-11T10:56:31.133Z,24.40
2018-10-11T10:57:31.144Z,24.53
2018-10-11T10:58:31.113Z,24.84
2018-10-11T10:59:31.110Z,24.96
2018-10-11T11:00:31.130Z,25.25
2018-10-11T11:01:31.087Z,25.60
2018-10-11T11:02:31.079Z,25.99
2018-10-11T11:03:31.064Z,26.00
2018-10-11T11:04:31.052Z,25.81
2018-10-11T11:05:31.087Z,25.96
2018-10-11T11:06:31.085Z,25.69
2018-10-11T11:07:31.087Z,25.55
2018-10-11T11:08:31.011Z,25.78
2018-10-11T11:09:31.003Z,25.75
2018-10-11T11:10:31.011Z,25.66
2018-10-11T11:11:30.984Z,25.36
2018-10-11T11:12:30.971Z,25.16
2018-10-11T11:13:30.963Z,25.43
2018-10-11T11:14:30.955Z,25.53
2018-10-11T11:15:30.935Z,25.41
2018-10-11T11:16:30.947Z,25.65
2018-10-11T11:17:30.921Z,25.90
2018-10-11T11:18:30.901Z,26.21
2018-10-11T11:19:30.899Z,26.68
2018-10-11T11:20:30.888Z,26.85
2018-10-11T11:21:30.889Z,26.78
2018-10-11T11:22:30.859Z,26.18
2018-10-11T11:23:30.871Z,25.93
2018-10-11T11:24:30.858Z,25.95
2018-10-11T11:25:30.831Z,26.05
2018-10-11T11:26:30.826Z,26.16
2018-10-11T11:27:30.835Z,26.21
2018-10-11T11:28:30.821Z,26.73
2018-10-11T11:29:30.783Z,26.97
2018-10-11T11:30:31.992Z,27.14
2018-10-11T11:31:30.768Z,27.25
2018-10-11T11:32:30.751Z,27.30
2018-10-11T11:33:30.748Z,27.44
2018-10-11T11:34:30.750Z,27.65
2018-10-11T11:35:30.733Z,27.77
2018-10-11T11:36:30.707Z,27.98
2018-10-11T11:37:30.704Z,28.01
2018-10-11T11:38:30.691Z,27.93
2018-10-11T11:39:30.673Z,28.01
2018-10-11T11:40:30.690Z,27.82
2018-10-11T11:41:30.655Z,27.74
2018-10-11T11:42:30.641Z,27.58
2018-10-11T11:43:30.634Z,27.63
2018-10-11T11:44:30.626Z,27.40
2018-10-11T11:45:30.626Z,27.36
2018-10-11T11:46:30.630Z,27.25
2018-10-11T11:47:30.598Z,26.97
2018-10-11T11:48:30.631Z,26.80
2018-10-11T11:49:30.573Z,26.73
2018-10-11T11:50:30.588Z,26.78
2018-10-11T11:51:30.552Z,26.56
2018-10-11T11:52:30.558Z,26.70
2018-10-11T11:53:30.557Z,26.66
2018-10-11T11:54:30.522Z,26.43
2018-10-11T11:55:30.510Z,26.37
2018-10-11T11:56:30.507Z,26.53
2018-10-11T11:57:30.492Z,26.52
2018-10-11T11:58:30.509Z,26.22
2018-10-11T11:59:30.468Z,26.19
2018-10-11T12:00:30.460Z,26.26
2018-10-11T12:01:30.443Z,26.19
2018-10-11T12:02:30.480Z,26.05
2018-10-11T12:03:30.454Z,26.02
2018-10-11T12:04:30.436Z,26.13
2018-10-11T12:05:30.413Z,26.13
2018-10-11T12:06:30.390Z,26.15
2018-10-11T12:07:30.382Z,26.00
2018-10-11T12:08:30.395Z,26.02
2018-10-11T12:09:30.396Z,26.06
2018-10-11T12:10:30.414Z,26.07
2018-10-11T12:11:30.340Z,25.98
2018-10-11T12:12:30.329Z,25.81
2018-10-11T12:13:30.316Z,25.46
2018-10-11T12:14:30.313Z,25.21
2018-10-11T12:15:30.327Z,24.92
2018-10-11T12:16:30.326Z,25.03
2018-10-11T12:17:30.279Z,25.03
2018-10-11T12:18:30.264Z,25.11
2018-10-11T12:19:30.259Z,25.25
2018-10-11T12:20:30.245Z,25.21
2018-10-11T12:21:30.248Z,25.28
2018-10-11T12:22:30.226Z,25.54
2018-10-11T12:23:30.215Z,25.41
2018-10-11T12:24:30.200Z,25.29
2018-10-11T12:25:30.198Z,25.28
2018-10-11T12:26:30.206Z,25.38
2018-10-11T12:27:30.172Z,25.55
2018-10-11T12:28:30.202Z,25.53
2018-10-11T12:29:30.154Z,25.72
2018-10-11T12:30:30.157Z,25.73
2018-10-11T12:31:30.140Z,25.66
2018-10-11T12:32:30.145Z,25.53
2018-10-11T12:33:30.100Z,25.51
2018-10-11T12:34:30.096Z,25.32
2018-10-11T12:35:30.086Z,25.36
2018-10-11T12:36:30.216Z,25.28
2018-10-11T12:37:30.072Z,25.35
2018-10-11T12:38:30.118Z,25.36
2018-10-11T12:39:30.057Z,25.58
2018-10-11T12:40:30.031Z,25.65
2018-10-11T12:41:30.025Z,25.80
2018-10-11T12:42:30.079Z,25.78
2018-10-11T12:43:30.000Z,25.78
2018-10-11T12:44:30.006Z,25.83
2018-10-11T12:45:29.973Z,25.77
2018-10-11T12:46:32.521Z,25.75
2018-10-11T12:47:29.957Z,25.75
2018-10-11T12:48:29.962Z,25.90
2018-10-11T12:49:30.164Z,26.00
2018-10-11T12:50:29.951Z,25.98
2018-10-11T12:51:29.948Z,26.03
2018-10-11T12:52:29.899Z,26.13
2018-10-11T12:53:29.889Z,26.19
2018-10-11T12:54:29.882Z,26.22
2018-10-11T12:55:29.897Z,26.37